sensor_id;sensor_type;location;lat;lon;timestamp;temperature;humidity
2625;DHT22;1322;53.256;10.386;2023-10-31T00:01:49;13.60;99.90
2625;DHT22;1322;53.256;10.386;2023-10-31T00:04:15;13.60;99.90
2625;DHT22;1322;53.256;10.386;2023-10-31T00:06:41;13.60;99.90
2625;DHT22;1322;53.256;10.386;2023-10-31T00:09:07;13.60;99.90
2625;DHT22;1322;53.256;10.386;2023-10-31T00:11:32;13.50;99.90
2625;DHT22;1322;53.256;10.386;2023-10-31T00:13:58;13.40;99.90
2625;DHT22;1322;53.256;10.386;2023-10-31T00:16:23;13.40;99.90
2625;DHT22;1322;53.256;10.386;2023-10-31T00:18:49;13.40;99.90
2625;DHT22;1322;53.256;10.386;2023-10-31T00:21:15;13.40;99.90
2625;DHT22;1322;53.256;10.386;2023-10-31T00:23:48;13.40;99.90
2625;DHT22;1322;53.256;10.386;2023-10-31T00:26:14;13.40;99.90
2625;DHT22;1322;53.256;10.386;2023-10-31T00:28:40;13.30;99.90
2625;DHT22;1322;53.256;10.386;2023-10-31T00:31:05;13.30;99.90
2625;DHT22;1322;53.256;10.386;2023-10-31T00:33:34;13.40;99.90
2625;DHT22;1322;53.256;10.386;2023-10-31T00:35:59;13.40;99.90
2625;DHT22;1322;53.256;10.386;2023-10-31T00:38:25;13.40;99.90
2625;DHT22;1322;53.256;10.386;2023-10-31T00:40:51;13.30;99.90
2625;DHT22;1322;53.256;10.386;2023-10-31T00:43:16;13.40;99.90
2625;DHT22;1322;53.256;10.386;2023-10-31T00:45:42;13.40;99.90
2625;DHT22;1322;53.256;10.386;2023-10-31T00:48:08;13.30;99.90
2625;DHT22;1322;53.256;10.386;2023-10-31T00:50:33;13.30;99.90
2625;DHT22;1322;53.256;10.386;2023-10-31T00:52:59;13.30;99.90
2625;DHT22;1322;53.256;10.386;2023-10-31T00:55:24;13.40;99.90
2625;DHT22;1322;53.256;10.386;2023-10-31T00:57:50;13.30;99.90
2625;DHT22;1322;53.256;10.386;2023-10-31T01:00:16;13.30;99.90
2625;DHT22;1322;53.256;10.386;2023-10-31T01:02:42;13.40;99.90
2625;DHT22;1322;53.256;10.386;2023-10-31T01:05:08;13.50;99.90
2625;DHT22;1322;53.256;10.386;2023-10-31T01:07:34;13.50;99.90
2625;DHT22;1322;53.256;10.386;2023-10-31T01:10:00;13.50;99.90
2625;DHT22;1322;53.256;10.386;2023-10-31T01:12:25;13.60;99.90
2625;DHT22;1322;53.256;10.386;2023-10-31T01:14:54;13.60;99.90
2625;DHT22;1322;53.256;10.386;2023-10-31T01:17:20;13.60;99.90
2625;DHT22;1322;53.256;10.386;2023-10-31T01:19:46;13.50;99.90
2625;DHT22;1322;53.256;10.386;2023-10-31T01:22:11;13.50;99.90
2625;DHT22;1322;53.256;10.386;2023-10-31T01:24:37;13.50;99.90
2625;DHT22;1322;53.256;10.386;2023-10-31T01:27:03;13.50;99.90
2625;DHT22;1322;53.256;10.386;2023-10-31T01:29:29;13.40;99.90
2625;DHT22;1322;53.256;10.386;2023-10-31T01:31:55;13.50;99.90
2625;DHT22;1322;53.256;10.386;2023-10-31T01:34:21;13.50;99.90
2625;DHT22;1322;53.256;10.386;2023-10-31T01:36:47;13.50;99.90
2625;DHT22;1322;53.256;10.386;2023-10-31T01:39:12;13.50;99.90
2625;DHT22;1322;53.256;10.386;2023-10-31T01:41:41;13.50;99.90
2625;DHT22;1322;53.256;10.386;2023-10-31T01:44:07;13.30;99.90
2625;DHT22;1322;53.256;10.386;2023-10-31T01:46:33;13.20;99.90
2625;DHT22;1322;53.256;10.386;2023-10-31T01:48:58;13.20;99.90
2625;DHT22;1322;53.256;10.386;2023-10-31T01:51:26;13.20;99.90
2625;DHT22;1322;53.256;10.386;2023-10-31T01:53:53;13.30;99.90
2625;DHT22;1322;53.256;10.386;2023-10-31T01:56:19;13.30;99.90
2625;DHT22;1322;53.256;10.386;2023-10-31T01:58:45;13.40;99.90
2625;DHT22;1322;53.256;10.386;2023-10-31T02:01:12;13.40;99.90
2625;DHT22;1322;53.256;10.386;2023-10-31T02:03:38;13.30;99.90
2625;DHT22;1322;53.256;10.386;2023-10-31T02:06:04;13.30;99.90
2625;DHT22;1322;53.256;10.386;2023-10-31T02:08:30;13.30;99.90
2625;DHT22;1322;53.256;10.386;2023-10-31T02:10:56;13.30;99.90
2625;DHT22;1322;53.256;10.386;2023-10-31T02:13:21;13.30;99.90
2625;DHT22;1322;53.256;10.386;2023-10-31T02:15:47;13.20;99.90
2625;DHT22;1322;53.256;10.386;2023-10-31T02:18:13;13.20;99.90
2625;DHT22;1322;53.256;10.386;2023-10-31T02:20:39;13.30;99.90
2625;DHT22;1322;53.256;10.386;2023-10-31T02:23:05;13.20;99.90
2625;DHT22;1322;53.256;10.386;2023-10-31T02:25:31;13.20;99.90
2625;DHT22;1322;53.256;10.386;2023-10-31T02:27:57;13.10;99.90
2625;DHT22;1322;53.256;10.386;2023-10-31T02:30:24;13.10;99.90
2625;DHT22;1322;53.256;10.386;2023-10-31T02:32:50;13.20;99.90
2625;DHT22;1322;53.256;10.386;2023-10-31T02:35:17;13.30;99.90
2625;DHT22;1322;53.256;10.386;2023-10-31T02:37:46;13.40;99.90
2625;DHT22;1322;53.256;10.386;2023-10-31T02:40:13;13.40;99.90
2625;DHT22;1322;53.256;10.386;2023-10-31T02:42:39;13.30;99.90
2625;DHT22;1322;53.256;10.386;2023-10-31T02:45:04;13.40;99.90
2625;DHT22;1322;53.256;10.386;2023-10-31T02:47:30;13.40;99.90
2625;DHT22;1322;53.256;10.386;2023-10-31T02:49:56;13.40;99.90
2625;DHT22;1322;53.256;10.386;2023-10-31T02:52:21;13.50;99.90
2625;DHT22;1322;53.256;10.386;2023-10-31T02:54:47;13.50;99.90
2625;DHT22;1322;53.256;10.386;2023-10-31T02:57:13;13.60;99.90
2625;DHT22;1322;53.256;10.386;2023-10-31T02:59:38;13.60;99.90
2625;DHT22;1322;53.256;10.386;2023-10-31T03:02:04;13.70;99.90
2625;DHT22;1322;53.256;10.386;2023-10-31T03:04:30;13.60;99.90
2625;DHT22;1322;53.256;10.386;2023-10-31T03:06:56;13.60;99.90
2625;DHT22;1322;53.256;10.386;2023-10-31T03:09:21;13.60;99.90
2625;DHT22;1322;53.256;10.386;2023-10-31T03:11:47;13.60;99.90
2625;DHT22;1322;53.256;10.386;2023-10-31T03:14:13;13.50;99.90
2625;DHT22;1322;53.256;10.386;2023-10-31T03:16:38;13.60;99.90
2625;DHT22;1322;53.256;10.386;2023-10-31T03:19:04;13.70;99.90
2625;DHT22;1322;53.256;10.386;2023-10-31T03:21:30;13.70;99.90
2625;DHT22;1322;53.256;10.386;2023-10-31T03:23:57;13.70;99.90
2625;DHT22;1322;53.256;10.386;2023-10-31T03:26:23;13.70;99.90
2625;DHT22;1322;53.256;10.386;2023-10-31T03:28:49;13.80;99.90
2625;DHT22;1322;53.256;10.386;2023-10-31T03:31:15;13.90;99.90
2625;DHT22;1322;53.256;10.386;2023-10-31T03:33:41;13.90;99.90
2625;DHT22;1322;53.256;10.386;2023-10-31T03:36:08;14.00;99.90
2625;DHT22;1322;53.256;10.386;2023-10-31T03:38:34;14.00;99.90
2625;DHT22;1322;53.256;10.386;2023-10-31T03:41:01;14.10;99.90
2625;DHT22;1322;53.256;10.386;2023-10-31T03:43:26;14.10;99.90
2625;DHT22;1322;53.256;10.386;2023-10-31T03:45:52;14.20;99.90
2625;DHT22;1322;53.256;10.386;2023-10-31T03:48:18;14.20;99.90
2625;DHT22;1322;53.256;10.386;2023-10-31T03:50:44;14.20;99.90
2625;DHT22;1322;53.256;10.386;2023-10-31T03:53:10;14.20;99.90
2625;DHT22;1322;53.256;10.386;2023-10-31T03:55:35;14.20;99.90
2625;DHT22;1322;53.256;10.386;2023-10-31T03:58:01;14.20;99.90
2625;DHT22;1322;53.256;10.386;2023-10-31T04:00:27;14.20;99.90
2625;DHT22;1322;53.256;10.386;2023-10-31T04:02:52;14.20;99.90
2625;DHT22;1322;53.256;10.386;2023-10-31T04:05:18;14.10;99.90
2625;DHT22;1322;53.256;10.386;2023-10-31T04:07:46;14.20;99.90
2625;DHT22;1322;53.256;10.386;2023-10-31T04:10:12;14.10;99.90
2625;DHT22;1322;53.256;10.386;2023-10-31T04:12:38;14.20;99.90
2625;DHT22;1322;53.256;10.386;2023-10-31T04:15:04;14.20;99.90
2625;DHT22;1322;53.256;10.386;2023-10-31T04:17:30;14.20;99.90
2625;DHT22;1322;53.256;10.386;2023-10-31T04:19:56;14.20;99.90
2625;DHT22;1322;53.256;10.386;2023-10-31T04:22:22;14.20;99.90
2625;DHT22;1322;53.256;10.386;2023-10-31T04:24:47;14.30;99.90
2625;DHT22;1322;53.256;10.386;2023-10-31T04:27:13;14.30;99.90
2625;DHT22;1322;53.256;10.386;2023-10-31T04:29:38;14.30;99.90
2625;DHT22;1322;53.256;10.386;2023-10-31T04:32:04;14.30;99.90
2625;DHT22;1322;53.256;10.386;2023-10-31T04:34:30;14.40;99.90
2625;DHT22;1322;53.256;10.386;2023-10-31T04:36:55;14.40;99.90
2625;DHT22;1322;53.256;10.386;2023-10-31T04:39:21;14.40;99.90
2625;DHT22;1322;53.256;10.386;2023-10-31T04:41:47;14.40;99.90
2625;DHT22;1322;53.256;10.386;2023-10-31T04:44:13;14.50;99.90
2625;DHT22;1322;53.256;10.386;2023-10-31T04:46:39;14.40;99.90
2625;DHT22;1322;53.256;10.386;2023-10-31T04:49:04;14.40;99.90
2625;DHT22;1322;53.256;10.386;2023-10-31T04:51:37;14.50;99.90
2625;DHT22;1322;53.256;10.386;2023-10-31T04:54:03;14.50;99.90
2625;DHT22;1322;53.256;10.386;2023-10-31T04:56:29;14.40;99.90
2625;DHT22;1322;53.256;10.386;2023-10-31T04:58:55;14.40;99.90
2625;DHT22;1322;53.256;10.386;2023-10-31T05:01:21;14.40;99.90
2625;DHT22;1322;53.256;10.386;2023-10-31T05:03:47;14.40;99.90
2625;DHT22;1322;53.256;10.386;2023-10-31T05:06:12;14.40;99.90
2625;DHT22;1322;53.256;10.386;2023-10-31T05:08:38;14.40;99.90
2625;DHT22;1322;53.256;10.386;2023-10-31T05:11:04;14.40;99.90
2625;DHT22;1322;53.256;10.386;2023-10-31T05:13:29;14.40;99.90
2625;DHT22;1322;53.256;10.386;2023-10-31T05:15:55;14.40;99.90
2625;DHT22;1322;53.256;10.386;2023-10-31T05:18:21;14.40;99.90
2625;DHT22;1322;53.256;10.386;2023-10-31T05:20:47;14.40;99.90
2625;DHT22;1322;53.256;10.386;2023-10-31T05:23:12;14.40;99.90
2625;DHT22;1322;53.256;10.386;2023-10-31T05:25:38;14.40;99.90
2625;DHT22;1322;53.256;10.386;2023-10-31T05:28:04;14.40;99.90
2625;DHT22;1322;53.256;10.386;2023-10-31T05:30:30;14.40;99.90
2625;DHT22;1322;53.256;10.386;2023-10-31T05:32:56;14.30;99.90
2625;DHT22;1322;53.256;10.386;2023-10-31T05:35:22;14.30;99.90
2625;DHT22;1322;53.256;10.386;2023-10-31T05:37:47;14.30;99.90
2625;DHT22;1322;53.256;10.386;2023-10-31T05:40:15;14.30;99.90
2625;DHT22;1322;53.256;10.386;2023-10-31T05:42:41;14.30;99.90
2625;DHT22;1322;53.256;10.386;2023-10-31T05:45:07;14.30;99.90
2625;DHT22;1322;53.256;10.386;2023-10-31T05:47:33;14.30;99.90
2625;DHT22;1322;53.256;10.386;2023-10-31T05:49:58;14.20;99.90
2625;DHT22;1322;53.256;10.386;2023-10-31T05:52:28;14.20;99.90
2625;DHT22;1322;53.256;10.386;2023-10-31T05:54:54;14.30;99.90
2625;DHT22;1322;53.256;10.386;2023-10-31T05:57:20;14.30;99.90
2625;DHT22;1322;53.256;10.386;2023-10-31T05:59:46;14.20;99.90
2625;DHT22;1322;53.256;10.386;2023-10-31T06:02:12;14.30;99.90
2625;DHT22;1322;53.256;10.386;2023-10-31T06:04:38;14.20;99.90
2625;DHT22;1322;53.256;10.386;2023-10-31T06:07:03;14.10;99.90
2625;DHT22;1322;53.256;10.386;2023-10-31T06:09:29;14.10;99.90
2625;DHT22;1322;53.256;10.386;2023-10-31T06:11:55;14.10;99.90
2625;DHT22;1322;53.256;10.386;2023-10-31T06:14:20;14.00;99.90
2625;DHT22;1322;53.256;10.386;2023-10-31T06:16:47;14.00;99.90
2625;DHT22;1322;53.256;10.386;2023-10-31T06:19:12;13.90;99.90
2625;DHT22;1322;53.256;10.386;2023-10-31T06:21:38;13.80;99.90
2625;DHT22;1322;53.256;10.386;2023-10-31T06:24:04;13.70;99.90
2625;DHT22;1322;53.256;10.386;2023-10-31T06:26:29;13.70;99.90
2625;DHT22;1322;53.256;10.386;2023-10-31T06:28:55;13.70;99.90
2625;DHT22;1322;53.256;10.386;2023-10-31T06:31:21;13.70;99.90
2625;DHT22;1322;53.256;10.386;2023-10-31T06:33:46;13.60;99.90
2625;DHT22;1322;53.256;10.386;2023-10-31T06:36:12;13.50;99.90
2625;DHT22;1322;53.256;10.386;2023-10-31T06:38:38;13.40;99.90
2625;DHT22;1322;53.256;10.386;2023-10-31T06:41:04;13.30;99.90
2625;DHT22;1322;53.256;10.386;2023-10-31T06:43:30;13.20;99.90
2625;DHT22;1322;53.256;10.386;2023-10-31T06:45:55;13.20;99.90
2625;DHT22;1322;53.256;10.386;2023-10-31T06:48:22;13.20;99.90
2625;DHT22;1322;53.256;10.386;2023-10-31T06:50:48;13.10;99.90
2625;DHT22;1322;53.256;10.386;2023-10-31T06:53:13;13.10;99.90
2625;DHT22;1322;53.256;10.386;2023-10-31T06:55:39;13.20;99.90
2625;DHT22;1322;53.256;10.386;2023-10-31T06:58:05;13.10;99.90
2625;DHT22;1322;53.256;10.386;2023-10-31T07:00:30;13.10;99.90
2625;DHT22;1322;53.256;10.386;2023-10-31T07:02:56;13.10;99.90
2625;DHT22;1322;53.256;10.386;2023-10-31T07:05:24;13.10;99.90
2625;DHT22;1322;53.256;10.386;2023-10-31T07:07:50;13.00;99.90
2625;DHT22;1322;53.256;10.386;2023-10-31T07:10:15;12.90;99.90
2625;DHT22;1322;53.256;10.386;2023-10-31T07:12:41;12.90;99.90
2625;DHT22;1322;53.256;10.386;2023-10-31T07:15:07;12.80;99.90
2625;DHT22;1322;53.256;10.386;2023-10-31T07:17:33;12.80;99.90
2625;DHT22;1322;53.256;10.386;2023-10-31T07:19:59;12.70;99.90
2625;DHT22;1322;53.256;10.386;2023-10-31T07:22:24;12.70;99.90
2625;DHT22;1322;53.256;10.386;2023-10-31T07:24:53;12.70;99.90
2625;DHT22;1322;53.256;10.386;2023-10-31T07:27:18;12.60;99.90
2625;DHT22;1322;53.256;10.386;2023-10-31T07:29:44;12.60;99.90
2625;DHT22;1322;53.256;10.386;2023-10-31T07:32:11;12.60;99.90
2625;DHT22;1322;53.256;10.386;2023-10-31T07:34:41;12.60;99.90
2625;DHT22;1322;53.256;10.386;2023-10-31T07:37:07;12.60;99.90
2625;DHT22;1322;53.256;10.386;2023-10-31T07:39:33;12.50;99.90
2625;DHT22;1322;53.256;10.386;2023-10-31T07:41:59;12.50;99.90
2625;DHT22;1322;53.256;10.386;2023-10-31T07:44:24;12.60;99.90
2625;DHT22;1322;53.256;10.386;2023-10-31T07:46:50;12.60;99.90
2625;DHT22;1322;53.256;10.386;2023-10-31T07:49:16;12.50;99.90
2625;DHT22;1322;53.256;10.386;2023-10-31T07:51:41;12.50;99.90
2625;DHT22;1322;53.256;10.386;2023-10-31T07:54:07;12.50;99.90
2625;DHT22;1322;53.256;10.386;2023-10-31T07:56:34;12.50;99.90
2625;DHT22;1322;53.256;10.386;2023-10-31T07:59:02;12.50;99.90
2625;DHT22;1322;53.256;10.386;2023-10-31T08:01:27;12.60;99.90
2625;DHT22;1322;53.256;10.386;2023-10-31T08:03:53;12.60;99.90
2625;DHT22;1322;53.256;10.386;2023-10-31T08:06:19;12.60;99.90
2625;DHT22;1322;53.256;10.386;2023-10-31T08:08:45;12.60;99.90
2625;DHT22;1322;53.256;10.386;2023-10-31T08:11:11;12.50;99.90
2625;DHT22;1322;53.256;10.386;2023-10-31T08:13:37;12.60;99.90
2625;DHT22;1322;53.256;10.386;2023-10-31T08:16:05;12.50;99.90
2625;DHT22;1322;53.256;10.386;2023-10-31T08:18:31;12.40;99.90
2625;DHT22;1322;53.256;10.386;2023-10-31T08:20:56;12.40;99.90
2625;DHT22;1322;53.256;10.386;2023-10-31T08:23:22;12.40;99.90
2625;DHT22;1322;53.256;10.386;2023-10-31T08:25:48;12.40;99.90
2625;DHT22;1322;53.256;10.386;2023-10-31T08:28:14;12.30;99.90
2625;DHT22;1322;53.256;10.386;2023-10-31T08:30:40;12.40;99.90
2625;DHT22;1322;53.256;10.386;2023-10-31T08:33:05;12.50;99.90
2625;DHT22;1322;53.256;10.386;2023-10-31T08:35:31;12.60;99.90
2625;DHT22;1322;53.256;10.386;2023-10-31T08:37:58;12.60;99.90
2625;DHT22;1322;53.256;10.386;2023-10-31T08:40:23;12.60;99.90
2625;DHT22;1322;53.256;10.386;2023-10-31T08:42:49;12.70;99.90
2625;DHT22;1322;53.256;10.386;2023-10-31T08:45:15;12.60;99.90
2625;DHT22;1322;53.256;10.386;2023-10-31T08:47:40;12.60;99.90
2625;DHT22;1322;53.256;10.386;2023-10-31T08:50:07;12.60;99.90
2625;DHT22;1322;53.256;10.386;2023-10-31T08:52:36;12.50;99.90
2625;DHT22;1322;53.256;10.386;2023-10-31T08:55:02;12.50;99.90
2625;DHT22;1322;53.256;10.386;2023-10-31T08:57:29;12.50;99.90
2625;DHT22;1322;53.256;10.386;2023-10-31T08:59:54;12.40;99.90
2625;DHT22;1322;53.256;10.386;2023-10-31T09:02:20;12.30;99.90
2625;DHT22;1322;53.256;10.386;2023-10-31T09:04:45;12.30;99.90
2625;DHT22;1322;53.256;10.386;2023-10-31T09:07:11;12.30;99.90
2625;DHT22;1322;53.256;10.386;2023-10-31T09:09:37;12.30;99.90
2625;DHT22;1322;53.256;10.386;2023-10-31T09:12:03;12.30;99.90
2625;DHT22;1322;53.256;10.386;2023-10-31T09:14:29;12.20;99.90
2625;DHT22;1322;53.256;10.386;2023-10-31T09:16:55;12.20;99.90
2625;DHT22;1322;53.256;10.386;2023-10-31T09:19:20;12.30;99.90
2625;DHT22;1322;53.256;10.386;2023-10-31T09:21:46;12.20;99.90
2625;DHT22;1322;53.256;10.386;2023-10-31T09:24:12;12.20;99.90
2625;DHT22;1322;53.256;10.386;2023-10-31T09:26:42;12.20;99.90
2625;DHT22;1322;53.256;10.386;2023-10-31T09:29:09;12.20;99.90
2625;DHT22;1322;53.256;10.386;2023-10-31T09:31:35;12.30;99.90
2625;DHT22;1322;53.256;10.386;2023-10-31T09:34:01;12.20;99.90
2625;DHT22;1322;53.256;10.386;2023-10-31T09:36:31;12.30;99.90
2625;DHT22;1322;53.256;10.386;2023-10-31T09:38:57;12.30;99.90
2625;DHT22;1322;53.256;10.386;2023-10-31T09:41:22;12.40;99.90
2625;DHT22;1322;53.256;10.386;2023-10-31T09:43:48;12.50;99.90
2625;DHT22;1322;53.256;10.386;2023-10-31T09:46:16;12.50;99.90
2625;DHT22;1322;53.256;10.386;2023-10-31T09:48:42;12.60;99.90
2625;DHT22;1322;53.256;10.386;2023-10-31T09:51:09;12.70;99.90
2625;DHT22;1322;53.256;10.386;2023-10-31T09:53:37;12.80;99.90
2625;DHT22;1322;53.256;10.386;2023-10-31T09:56:04;12.90;99.90
2625;DHT22;1322;53.256;10.386;2023-10-31T09:58:31;12.90;99.90
2625;DHT22;1322;53.256;10.386;2023-10-31T10:00:57;12.90;99.90
2625;DHT22;1322;53.256;10.386;2023-10-31T10:03:23;12.80;99.90
2625;DHT22;1322;53.256;10.386;2023-10-31T10:05:49;12.80;99.90
2625;DHT22;1322;53.256;10.386;2023-10-31T10:08:15;12.70;99.90
2625;DHT22;1322;53.256;10.386;2023-10-31T10:10:42;12.70;99.90
2625;DHT22;1322;53.256;10.386;2023-10-31T10:13:07;12.80;99.90
2625;DHT22;1322;53.256;10.386;2023-10-31T10:15:47;12.90;99.90
2625;DHT22;1322;53.256;10.386;2023-10-31T10:18:31;13.00;99.90
2625;DHT22;1322;53.256;10.386;2023-10-31T10:20:59;12.90;99.90
2625;DHT22;1322;53.256;10.386;2023-10-31T10:23:26;13.00;99.90
2625;DHT22;1322;53.256;10.386;2023-10-31T10:25:54;13.00;99.90
2625;DHT22;1322;53.256;10.386;2023-10-31T10:28:20;13.10;99.90
2625;DHT22;1322;53.256;10.386;2023-10-31T10:30:48;13.00;99.90
2625;DHT22;1322;53.256;10.386;2023-10-31T10:33:15;12.90;99.90
2625;DHT22;1322;53.256;10.386;2023-10-31T10:35:41;12.90;99.90
2625;DHT22;1322;53.256;10.386;2023-10-31T10:38:16;12.90;99.90
2625;DHT22;1322;53.256;10.386;2023-10-31T10:40:44;12.90;99.90
2625;DHT22;1322;53.256;10.386;2023-10-31T10:43:23;12.80;99.90
2625;DHT22;1322;53.256;10.386;2023-10-31T10:45:57;12.90;99.90
2625;DHT22;1322;53.256;10.386;2023-10-31T10:48:27;12.90;99.90
2625;DHT22;1322;53.256;10.386;2023-10-31T10:50:59;13.00;99.90
2625;DHT22;1322;53.256;10.386;2023-10-31T10:53:30;13.00;99.90
2625;DHT22;1322;53.256;10.386;2023-10-31T10:56:03;13.00;99.90
2625;DHT22;1322;53.256;10.386;2023-10-31T10:59:03;13.10;99.90
2625;DHT22;1322;53.256;10.386;2023-10-31T11:01:30;13.30;99.90
2625;DHT22;1322;53.256;10.386;2023-10-31T11:03:56;13.50;99.90
2625;DHT22;1322;53.256;10.386;2023-10-31T11:06:23;13.50;99.90
2625;DHT22;1322;53.256;10.386;2023-10-31T11:08:49;13.50;99.90
2625;DHT22;1322;53.256;10.386;2023-10-31T11:11:19;13.60;99.90
2625;DHT22;1322;53.256;10.386;2023-10-31T11:13:45;13.60;99.90
2625;DHT22;1322;53.256;10.386;2023-10-31T11:16:24;13.60;99.90
2625;DHT22;1322;53.256;10.386;2023-10-31T11:18:51;13.50;99.90
2625;DHT22;1322;53.256;10.386;2023-10-31T11:21:17;13.50;99.90
2625;DHT22;1322;53.256;10.386;2023-10-31T11:23:43;13.30;99.90
2625;DHT22;1322;53.256;10.386;2023-10-31T11:26:09;13.20;99.90
2625;DHT22;1322;53.256;10.386;2023-10-31T11:28:36;13.10;99.90
2625;DHT22;1322;53.256;10.386;2023-10-31T11:31:01;13.00;99.90
2625;DHT22;1322;53.256;10.386;2023-10-31T11:33:28;12.90;99.90
2625;DHT22;1322;53.256;10.386;2023-10-31T11:36:01;12.90;99.90
2625;DHT22;1322;53.256;10.386;2023-10-31T11:38:32;12.90;99.90
2625;DHT22;1322;53.256;10.386;2023-10-31T11:41:00;12.80;99.90
2625;DHT22;1322;53.256;10.386;2023-10-31T11:43:56;12.90;99.90
2625;DHT22;1322;53.256;10.386;2023-10-31T11:46:23;13.00;99.90
2625;DHT22;1322;53.256;10.386;2023-10-31T11:48:53;13.00;99.90
2625;DHT22;1322;53.256;10.386;2023-10-31T11:51:20;13.00;99.90
2625;DHT22;1322;53.256;10.386;2023-10-31T11:53:45;13.10;99.90
2625;DHT22;1322;53.256;10.386;2023-10-31T11:56:12;13.10;99.90
2625;DHT22;1322;53.256;10.386;2023-10-31T11:58:37;13.20;99.90
2625;DHT22;1322;53.256;10.386;2023-10-31T12:01:05;13.20;99.90
2625;DHT22;1322;53.256;10.386;2023-10-31T12:03:42;13.20;99.90
2625;DHT22;1322;53.256;10.386;2023-10-31T12:06:09;13.10;99.90
2625;DHT22;1322;53.256;10.386;2023-10-31T12:08:39;13.10;99.90
2625;DHT22;1322;53.256;10.386;2023-10-31T12:11:09;13.00;99.90
2625;DHT22;1322;53.256;10.386;2023-10-31T12:13:37;13.00;99.90
2625;DHT22;1322;53.256;10.386;2023-10-31T12:16:04;13.00;99.90
2625;DHT22;1322;53.256;10.386;2023-10-31T12:18:30;12.80;99.90
2625;DHT22;1322;53.256;10.386;2023-10-31T12:20:56;12.70;99.90
2625;DHT22;1322;53.256;10.386;2023-10-31T12:23:22;12.80;99.90
2625;DHT22;1322;53.256;10.386;2023-10-31T12:25:48;12.80;99.90
2625;DHT22;1322;53.256;10.386;2023-10-31T12:28:21;12.90;99.90
2625;DHT22;1322;53.256;10.386;2023-10-31T12:30:49;12.90;99.90
2625;DHT22;1322;53.256;10.386;2023-10-31T12:33:16;13.10;99.90
2625;DHT22;1322;53.256;10.386;2023-10-31T12:35:42;13.20;99.90
2625;DHT22;1322;53.256;10.386;2023-10-31T12:38:10;13.30;99.90
2625;DHT22;1322;53.256;10.386;2023-10-31T12:40:38;13.40;99.90
2625;DHT22;1322;53.256;10.386;2023-10-31T12:43:04;13.60;99.90
2625;DHT22;1322;53.256;10.386;2023-10-31T12:45:30;13.60;99.90
2625;DHT22;1322;53.256;10.386;2023-10-31T12:48:23;13.70;99.90
2625;DHT22;1322;53.256;10.386;2023-10-31T12:50:49;13.50;99.90
2625;DHT22;1322;53.256;10.386;2023-10-31T12:53:23;13.50;99.90
2625;DHT22;1322;53.256;10.386;2023-10-31T12:55:48;13.50;99.90
2625;DHT22;1322;53.256;10.386;2023-10-31T12:58:20;13.60;99.90
2625;DHT22;1322;53.256;10.386;2023-10-31T13:00:46;13.60;99.90
2625;DHT22;1322;53.256;10.386;2023-10-31T13:03:12;13.70;99.90
2625;DHT22;1322;53.256;10.386;2023-10-31T13:05:37;13.70;99.90
2625;DHT22;1322;53.256;10.386;2023-10-31T13:08:14;13.70;99.90
2625;DHT22;1322;53.256;10.386;2023-10-31T13:10:39;13.70;99.90
2625;DHT22;1322;53.256;10.386;2023-10-31T13:13:05;13.70;99.90
2625;DHT22;1322;53.256;10.386;2023-10-31T13:15:31;13.70;99.90
2625;DHT22;1322;53.256;10.386;2023-10-31T13:17:56;13.70;99.90
2625;DHT22;1322;53.256;10.386;2023-10-31T13:20:25;13.70;99.90
2625;DHT22;1322;53.256;10.386;2023-10-31T13:22:51;13.80;99.90
2625;DHT22;1322;53.256;10.386;2023-10-31T13:25:17;13.70;99.90
2625;DHT22;1322;53.256;10.386;2023-10-31T13:27:44;13.80;99.90
2625;DHT22;1322;53.256;10.386;2023-10-31T13:30:10;13.90;99.90
2625;DHT22;1322;53.256;10.386;2023-10-31T13:32:37;14.00;99.90
2625;DHT22;1322;53.256;10.386;2023-10-31T13:35:06;14.10;99.90
2625;DHT22;1322;53.256;10.386;2023-10-31T13:37:32;14.30;99.90
2625;DHT22;1322;53.256;10.386;2023-10-31T13:39:57;14.30;99.90
2625;DHT22;1322;53.256;10.386;2023-10-31T13:42:23;14.30;99.90
2625;DHT22;1322;53.256;10.386;2023-10-31T13:44:48;14.40;99.90
2625;DHT22;1322;53.256;10.386;2023-10-31T13:47:14;14.30;99.90
2625;DHT22;1322;53.256;10.386;2023-10-31T13:49:40;14.30;99.90
2625;DHT22;1322;53.256;10.386;2023-10-31T13:52:06;14.20;99.90
2625;DHT22;1322;53.256;10.386;2023-10-31T13:54:32;14.20;99.90
2625;DHT22;1322;53.256;10.386;2023-10-31T13:56:58;14.10;99.90
2625;DHT22;1322;53.256;10.386;2023-10-31T13:59:25;13.90;99.90
2625;DHT22;1322;53.256;10.386;2023-10-31T14:01:50;13.90;99.90
2625;DHT22;1322;53.256;10.386;2023-10-31T14:04:17;13.90;99.90
2625;DHT22;1322;53.256;10.386;2023-10-31T14:06:43;13.90;99.90
2625;DHT22;1322;53.256;10.386;2023-10-31T14:09:10;13.90;99.90
2625;DHT22;1322;53.256;10.386;2023-10-31T14:11:37;13.90;99.90
2625;DHT22;1322;53.256;10.386;2023-10-31T14:14:03;13.90;99.90
2625;DHT22;1322;53.256;10.386;2023-10-31T14:16:32;13.80;99.90
2625;DHT22;1322;53.256;10.386;2023-10-31T14:18:58;13.80;99.90
2625;DHT22;1322;53.256;10.386;2023-10-31T14:21:24;13.70;99.90
2625;DHT22;1322;53.256;10.386;2023-10-31T14:23:51;13.70;99.90
2625;DHT22;1322;53.256;10.386;2023-10-31T14:26:22;13.70;99.90
2625;DHT22;1322;53.256;10.386;2023-10-31T14:28:49;13.70;99.90
2625;DHT22;1322;53.256;10.386;2023-10-31T14:31:15;13.60;99.90
2625;DHT22;1322;53.256;10.386;2023-10-31T14:33:42;13.40;99.90
2625;DHT22;1322;53.256;10.386;2023-10-31T14:36:09;13.20;99.90
2625;DHT22;1322;53.256;10.386;2023-10-31T14:38:36;13.10;99.90
2625;DHT22;1322;53.256;10.386;2023-10-31T14:41:02;12.90;99.90
2625;DHT22;1322;53.256;10.386;2023-10-31T14:43:29;12.70;99.90
2625;DHT22;1322;53.256;10.386;2023-10-31T14:45:54;12.60;99.90
2625;DHT22;1322;53.256;10.386;2023-10-31T14:48:20;12.60;99.90
2625;DHT22;1322;53.256;10.386;2023-10-31T14:50:47;12.50;99.90
2625;DHT22;1322;53.256;10.386;2023-10-31T14:53:17;12.40;99.90
2625;DHT22;1322;53.256;10.386;2023-10-31T14:55:44;12.40;99.90
2625;DHT22;1322;53.256;10.386;2023-10-31T14:58:10;12.30;99.90
2625;DHT22;1322;53.256;10.386;2023-10-31T15:00:36;12.00;99.90
2625;DHT22;1322;53.256;10.386;2023-10-31T15:03:03;11.80;99.90
2625;DHT22;1322;53.256;10.386;2023-10-31T15:05:29;11.50;99.90
2625;DHT22;1322;53.256;10.386;2023-10-31T15:07:55;11.40;99.90
2625;DHT22;1322;53.256;10.386;2023-10-31T15:10:23;11.10;99.90
2625;DHT22;1322;53.256;10.386;2023-10-31T15:12:49;11.00;99.90
2625;DHT22;1322;53.256;10.386;2023-10-31T15:15:18;10.90;99.90
2625;DHT22;1322;53.256;10.386;2023-10-31T15:17:44;10.80;99.90
2625;DHT22;1322;53.256;10.386;2023-10-31T15:20:10;10.60;99.90
2625;DHT22;1322;53.256;10.386;2023-10-31T15:22:38;10.50;99.90
2625;DHT22;1322;53.256;10.386;2023-10-31T15:25:04;10.40;99.90
2625;DHT22;1322;53.256;10.386;2023-10-31T15:27:29;10.30;99.90
2625;DHT22;1322;53.256;10.386;2023-10-31T15:29:55;10.20;99.90
2625;DHT22;1322;53.256;10.386;2023-10-31T15:32:20;10.10;99.90
2625;DHT22;1322;53.256;10.386;2023-10-31T15:34:46;10.00;99.90
2625;DHT22;1322;53.256;10.386;2023-10-31T15:37:12;9.90;99.90
2625;DHT22;1322;53.256;10.386;2023-10-31T15:39:38;9.90;99.90
2625;DHT22;1322;53.256;10.386;2023-10-31T15:42:06;9.80;99.90
2625;DHT22;1322;53.256;10.386;2023-10-31T15:44:32;9.80;99.90